sensor_id;sensor_type;location;lat;lon;timestamp;temperature;humidity
40636;DHT22;26642;55.766;37.828;2023-07-16T00:00:52;21.20;80.50
40636;DHT22;26642;55.766;37.828;2023-07-16T00:03:18;21.20;80.50
40636;DHT22;26642;55.766;37.828;2023-07-16T00:05:44;21.20;80.50
40636;DHT22;26642;55.766;37.828;2023-07-16T00:08:10;21.20;80.60
40636;DHT22;26642;55.766;37.828;2023-07-16T00:10:36;21.20;80.50
40636;DHT22;26642;55.766;37.828;2023-07-16T00:13:05;21.20;80.40
40636;DHT22;26642;55.766;37.828;2023-07-16T00:15:31;21.20;80.40
40636;DHT22;26642;55.766;37.828;2023-07-16T00:17:57;21.20;80.50
40636;DHT22;26642;55.766;37.828;2023-07-16T00:20:23;21.10;80.40
40636;DHT22;26642;55.766;37.828;2023-07-16T00:22:50;21.10;80.40
40636;DHT22;26642;55.766;37.828;2023-07-16T00:25:16;21.10;80.60
40636;DHT22;26642;55.766;37.828;2023-07-16T00:27:42;21.10;80.60
40636;DHT22;26642;55.766;37.828;2023-07-16T00:30:08;21.10;80.50
40636;DHT22;26642;55.766;37.828;2023-07-16T00:32:34;21.10;80.60
40636;DHT22;26642;55.766;37.828;2023-07-16T00:35:01;21.10;80.60
40636;DHT22;26642;55.766;37.828;2023-07-16T00:37:27;21.10;80.60
40636;DHT22;26642;55.766;37.828;2023-07-16T00:39:53;21.10;80.80
40636;DHT22;26642;55.766;37.828;2023-07-16T00:42:19;21.10;80.80
40636;DHT22;26642;55.766;37.828;2023-07-16T00:44:45;21.10;80.80
40636;DHT22;26642;55.766;37.828;2023-07-16T00:47:11;21.00;80.90
40636;DHT22;26642;55.766;37.828;2023-07-16T00:49:38;21.00;81.00
40636;DHT22;26642;55.766;37.828;2023-07-16T00:52:05;21.00;80.90
40636;DHT22;26642;55.766;37.828;2023-07-16T00:54:33;21.00;81.00
40636;DHT22;26642;55.766;37.828;2023-07-16T00:57:00;21.00;81.00
40636;DHT22;26642;55.766;37.828;2023-07-16T00:59:26;21.00;81.10
40636;DHT22;26642;55.766;37.828;2023-07-16T01:01:51;21.00;81.00
40636;DHT22;26642;55.766;37.828;2023-07-16T01:04:17;21.00;81.10
40636;DHT22;26642;55.766;37.828;2023-07-16T01:06:48;21.00;81.00
40636;DHT22;26642;55.766;37.828;2023-07-16T01:09:18;21.00;81.10
40636;DHT22;26642;55.766;37.828;2023-07-16T01:11:45;21.00;81.00
40636;DHT22;26642;55.766;37.828;2023-07-16T01:14:14;21.00;81.10
40636;DHT22;26642;55.766;37.828;2023-07-16T01:16:41;21.00;81.00
40636;DHT22;26642;55.766;37.828;2023-07-16T01:19:08;21.00;81.10
40636;DHT22;26642;55.766;37.828;2023-07-16T01:21:35;21.00;81.00
40636;DHT22;26642;55.766;37.828;2023-07-16T01:27:27;21.00;81.00
40636;DHT22;26642;55.766;37.828;2023-07-16T01:30:01;21.00;81.10
40636;DHT22;26642;55.766;37.828;2023-07-16T01:32:31;21.00;81.20
40636;DHT22;26642;55.766;37.828;2023-07-16T01:35:02;20.90;81.20
40636;DHT22;26642;55.766;37.828;2023-07-16T01:37:29;20.90;81.30
40636;DHT22;26642;55.766;37.828;2023-07-16T01:39:55;20.90;81.30
40636;DHT22;26642;55.766;37.828;2023-07-16T01:42:21;20.90;81.40
40636;DHT22;26642;55.766;37.828;2023-07-16T01:44:46;20.90;81.50
40636;DHT22;26642;55.766;37.828;2023-07-16T01:47:29;20.90;81.50
40636;DHT22;26642;55.766;37.828;2023-07-16T01:50:00;20.90;81.60
40636;DHT22;26642;55.766;37.828;2023-07-16T01:52:26;20.90;81.60
40636;DHT22;26642;55.766;37.828;2023-07-16T01:54:52;20.90;81.60
40636;DHT22;26642;55.766;37.828;2023-07-16T01:57:21;20.90;81.60
40636;DHT22;26642;55.766;37.828;2023-07-16T01:59:47;20.90;81.70
40636;DHT22;26642;55.766;37.828;2023-07-16T02:02:13;20.90;81.70
40636;DHT22;26642;55.766;37.828;2023-07-16T02:04:39;20.80;81.60
40636;DHT22;26642;55.766;37.828;2023-07-16T02:07:05;20.90;81.70
40636;DHT22;26642;55.766;37.828;2023-07-16T02:09:31;20.80;81.60
40636;DHT22;26642;55.766;37.828;2023-07-16T02:11:56;20.90;81.60
40636;DHT22;26642;55.766;37.828;2023-07-16T02:14:23;20.90;81.60
40636;DHT22;26642;55.766;37.828;2023-07-16T02:16:49;20.90;81.60
40636;DHT22;26642;55.766;37.828;2023-07-16T02:19:15;20.80;82.10
40636;DHT22;26642;55.766;37.828;2023-07-16T02:21:41;20.90;81.60
40636;DHT22;26642;55.766;37.828;2023-07-16T02:24:07;20.80;81.70
40636;DHT22;26642;55.766;37.828;2023-07-16T02:26:33;20.80;81.70
40636;DHT22;26642;55.766;37.828;2023-07-16T02:28:59;20.80;81.70
40636;DHT22;26642;55.766;37.828;2023-07-16T02:31:25;20.80;81.70
40636;DHT22;26642;55.766;37.828;2023-07-16T02:33:51;20.80;81.70
40636;DHT22;26642;55.766;37.828;2023-07-16T02:36:16;20.90;81.70
40636;DHT22;26642;55.766;37.828;2023-07-16T02:38:42;20.90;81.70
40636;DHT22;26642;55.766;37.828;2023-07-16T02:41:09;20.90;81.80
40636;DHT22;26642;55.766;37.828;2023-07-16T02:43:35;20.90;81.80
40636;DHT22;26642;55.766;37.828;2023-07-16T02:46:01;20.90;81.90
40636;DHT22;26642;55.766;37.828;2023-07-16T02:48:28;20.90;81.80
40636;DHT22;26642;55.766;37.828;2023-07-16T02:50:54;20.90;81.70
40636;DHT22;26642;55.766;37.828;2023-07-16T02:53:20;20.90;81.70
40636;DHT22;26642;55.766;37.828;2023-07-16T02:55:46;20.90;81.80
40636;DHT22;26642;55.766;37.828;2023-07-16T02:58:12;20.90;81.80
40636;DHT22;26642;55.766;37.828;2023-07-16T03:00:38;20.90;81.80
40636;DHT22;26642;55.766;37.828;2023-07-16T03:03:04;20.90;81.70
40636;DHT22;26642;55.766;37.828;2023-07-16T03:05:30;20.90;81.70
40636;DHT22;26642;55.766;37.828;2023-07-16T03:07:57;21.00;81.70
40636;DHT22;26642;55.766;37.828;2023-07-16T03:10:23;20.90;81.90
40636;DHT22;26642;55.766;37.828;2023-07-16T03:12:52;21.00;81.90
40636;DHT22;26642;55.766;37.828;2023-07-16T03:15:19;21.00;82.00
40636;DHT22;26642;55.766;37.828;2023-07-16T03:17:45;20.90;81.90
40636;DHT22;26642;55.766;37.828;2023-07-16T03:20:11;20.90;82.00
40636;DHT22;26642;55.766;37.828;2023-07-16T03:22:38;21.00;82.10
40636;DHT22;26642;55.766;37.828;2023-07-16T03:25:05;21.00;82.00
40636;DHT22;26642;55.766;37.828;2023-07-16T03:27:31;21.00;82.00
40636;DHT22;26642;55.766;37.828;2023-07-16T03:29:59;21.00;81.90
40636;DHT22;26642;55.766;37.828;2023-07-16T03:32:25;21.00;81.90
40636;DHT22;26642;55.766;37.828;2023-07-16T03:34:51;21.00;81.80
40636;DHT22;26642;55.766;37.828;2023-07-16T03:37:17;21.00;81.90
40636;DHT22;26642;55.766;37.828;2023-07-16T03:39:43;21.00;81.90
40636;DHT22;26642;55.766;37.828;2023-07-16T03:42:09;21.10;82.00
40636;DHT22;26642;55.766;37.828;2023-07-16T03:44:35;21.10;82.00
40636;DHT22;26642;55.766;37.828;2023-07-16T03:47:03;21.10;82.00
40636;DHT22;26642;55.766;37.828;2023-07-16T03:49:29;21.10;82.00
40636;DHT22;26642;55.766;37.828;2023-07-16T03:51:54;21.10;82.00
40636;DHT22;26642;55.766;37.828;2023-07-16T03:54:20;21.10;82.00
40636;DHT22;26642;55.766;37.828;2023-07-16T03:56:46;21.10;82.10
40636;DHT22;26642;55.766;37.828;2023-07-16T03:59:12;21.10;82.30
40636;DHT22;26642;55.766;37.828;2023-07-16T04:01:38;21.10;82.20
40636;DHT22;26642;55.766;37.828;2023-07-16T04:04:04;21.10;82.20
40636;DHT22;26642;55.766;37.828;2023-07-16T04:06:30;21.10;82.20
40636;DHT22;26642;55.766;37.828;2023-07-16T04:08:57;21.10;82.10
40636;DHT22;26642;55.766;37.828;2023-07-16T04:11:23;21.20;81.90
40636;DHT22;26642;55.766;37.828;2023-07-16T04:13:49;21.20;81.90
40636;DHT22;26642;55.766;37.828;2023-07-16T04:16:14;21.20;82.10
40636;DHT22;26642;55.766;37.828;2023-07-16T04:18:40;21.20;82.10
40636;DHT22;26642;55.766;37.828;2023-07-16T04:21:06;21.20;82.10
40636;DHT22;26642;55.766;37.828;2023-07-16T04:23:32;21.20;82.10
40636;DHT22;26642;55.766;37.828;2023-07-16T04:25:58;21.10;82.30
40636;DHT22;26642;55.766;37.828;2023-07-16T04:28:24;21.10;82.30
40636;DHT22;26642;55.766;37.828;2023-07-16T04:30:50;21.20;82.10
40636;DHT22;26642;55.766;37.828;2023-07-16T04:33:16;21.20;82.10
40636;DHT22;26642;55.766;37.828;2023-07-16T04:35:42;21.20;82.00
40636;DHT22;26642;55.766;37.828;2023-07-16T04:38:08;21.20;81.90
40636;DHT22;26642;55.766;37.828;2023-07-16T04:40:34;21.20;81.90
40636;DHT22;26642;55.766;37.828;2023-07-16T04:42:59;21.30;82.00
40636;DHT22;26642;55.766;37.828;2023-07-16T04:45:25;21.30;82.40
40636;DHT22;26642;55.766;37.828;2023-07-16T04:47:51;21.30;81.70
40636;DHT22;26642;55.766;37.828;2023-07-16T04:50:17;21.40;81.60
40636;DHT22;26642;55.766;37.828;2023-07-16T04:52:43;21.40;81.60
40636;DHT22;26642;55.766;37.828;2023-07-16T04:55:09;21.40;81.60
40636;DHT22;26642;55.766;37.828;2023-07-16T04:57:35;21.40;81.60
40636;DHT22;26642;55.766;37.828;2023-07-16T05:00:01;21.40;81.50
40636;DHT22;26642;55.766;37.828;2023-07-16T05:02:28;21.40;81.70
40636;DHT22;26642;55.766;37.828;2023-07-16T05:04:54;21.40;81.70
40636;DHT22;26642;55.766;37.828;2023-07-16T05:07:20;21.50;81.60
40636;DHT22;26642;55.766;37.828;2023-07-16T05:09:46;21.50;81.60
40636;DHT22;26642;55.766;37.828;2023-07-16T05:12:12;21.50;81.60
40636;DHT22;26642;55.766;37.828;2023-07-16T05:14:46;21.50;81.50
40636;DHT22;26642;55.766;37.828;2023-07-16T05:17:12;21.50;81.60
40636;DHT22;26642;55.766;37.828;2023-07-16T05:19:38;21.50;81.60
40636;DHT22;26642;55.766;37.828;2023-07-16T05:22:04;21.50;81.50
40636;DHT22;26642;55.766;37.828;2023-07-16T05:24:31;21.50;81.40
40636;DHT22;26642;55.766;37.828;2023-07-16T05:26:57;21.50;81.40
40636;DHT22;26642;55.766;37.828;2023-07-16T05:29:23;21.60;81.50
40636;DHT22;26642;55.766;37.828;2023-07-16T05:31:49;21.60;81.60
40636;DHT22;26642;55.766;37.828;2023-07-16T05:34:15;21.60;81.40
40636;DHT22;26642;55.766;37.828;2023-07-16T05:36:42;21.60;81.40
40636;DHT22;26642;55.766;37.828;2023-07-16T05:39:10;21.60;81.40
40636;DHT22;26642;55.766;37.828;2023-07-16T05:41:39;21.70;81.50
40636;DHT22;26642;55.766;37.828;2023-07-16T05:44:06;21.70;81.20
40636;DHT22;26642;55.766;37.828;2023-07-16T05:46:33;21.70;81.20
40636;DHT22;26642;55.766;37.828;2023-07-16T05:48:59;21.70;81.40
40636;DHT22;26642;55.766;37.828;2023-07-16T05:51:25;21.70;81.20
40636;DHT22;26642;55.766;37.828;2023-07-16T05:53:51;21.70;81.30
40636;DHT22;26642;55.766;37.828;2023-07-16T05:56:17;21.80;81.30
40636;DHT22;26642;55.766;37.828;2023-07-16T05:58:43;21.80;81.30
40636;DHT22;26642;55.766;37.828;2023-07-16T06:01:09;21.80;81.10
40636;DHT22;26642;55.766;37.828;2023-07-16T06:03:35;21.90;81.00
40636;DHT22;26642;55.766;37.828;2023-07-16T06:06:01;21.90;80.90
40636;DHT22;26642;55.766;37.828;2023-07-16T06:08:26;21.90;80.90
40636;DHT22;26642;55.766;37.828;2023-07-16T06:10:52;22.00;80.80
40636;DHT22;26642;55.766;37.828;2023-07-16T06:13:18;22.00;81.50
40636;DHT22;26642;55.766;37.828;2023-07-16T06:15:45;22.20;80.90
40636;DHT22;26642;55.766;37.828;2023-07-16T06:18:12;22.30;80.80
40636;DHT22;26642;55.766;37.828;2023-07-16T06:20:38;22.30;80.50
40636;DHT22;26642;55.766;37.828;2023-07-16T06:23:04;22.40;80.40
40636;DHT22;26642;55.766;37.828;2023-07-16T06:25:30;22.50;80.10
40636;DHT22;26642;55.766;37.828;2023-07-16T06:27:56;22.50;79.80
40636;DHT22;26642;55.766;37.828;2023-07-16T06:30:22;22.60;80.10
40636;DHT22;26642;55.766;37.828;2023-07-16T06:32:48;22.60;79.90
40636;DHT22;26642;55.766;37.828;2023-07-16T06:35:14;22.60;79.70
40636;DHT22;26642;55.766;37.828;2023-07-16T06:37:40;22.70;79.80
40636;DHT22;26642;55.766;37.828;2023-07-16T06:40:06;22.80;79.70
40636;DHT22;26642;55.766;37.828;2023-07-16T06:42:32;22.80;79.60
40636;DHT22;26642;55.766;37.828;2023-07-16T06:44:58;22.90;79.40
40636;DHT22;26642;55.766;37.828;2023-07-16T06:47:24;23.00;79.40
40636;DHT22;26642;55.766;37.828;2023-07-16T06:49:50;23.00;79.00
40636;DHT22;26642;55.766;37.828;2023-07-16T06:52:20;23.00;78.70
40636;DHT22;26642;55.766;37.828;2023-07-16T06:54:46;23.00;78.80
40636;DHT22;26642;55.766;37.828;2023-07-16T06:57:12;23.10;78.40
40636;DHT22;26642;55.766;37.828;2023-07-16T06:59:38;23.10;78.20
40636;DHT22;26642;55.766;37.828;2023-07-16T07:02:05;23.10;78.10
40636;DHT22;26642;55.766;37.828;2023-07-16T07:04:31;23.10;78.00
40636;DHT22;26642;55.766;37.828;2023-07-16T07:06:57;23.10;78.00
40636;DHT22;26642;55.766;37.828;2023-07-16T07:09:23;23.10;78.10
40636;DHT22;26642;55.766;37.828;2023-07-16T07:11:49;23.10;78.00
40636;DHT22;26642;55.766;37.828;2023-07-16T07:14:15;23.10;78.00
40636;DHT22;26642;55.766;37.828;2023-07-16T07:16:41;23.10;77.90
40636;DHT22;26642;55.766;37.828;2023-07-16T07:19:08;23.10;77.80
40636;DHT22;26642;55.766;37.828;2023-07-16T07:21:34;23.10;77.80
40636;DHT22;26642;55.766;37.828;2023-07-16T07:24:00;23.10;77.80
40636;DHT22;26642;55.766;37.828;2023-07-16T07:26:26;23.20;77.70
40636;DHT22;26642;55.766;37.828;2023-07-16T07:28:52;23.20;77.40
40636;DHT22;26642;55.766;37.828;2023-07-16T07:31:17;23.20;77.30
40636;DHT22;26642;55.766;37.828;2023-07-16T07:33:43;23.20;77.20
40636;DHT22;26642;55.766;37.828;2023-07-16T07:36:09;23.20;77.20
40636;DHT22;26642;55.766;37.828;2023-07-16T07:38:35;23.20;77.10
40636;DHT22;26642;55.766;37.828;2023-07-16T07:41:01;23.30;77.30
40636;DHT22;26642;55.766;37.828;2023-07-16T07:43:27;23.30;77.20
40636;DHT22;26642;55.766;37.828;2023-07-16T07:45:53;23.30;77.20
40636;DHT22;26642;55.766;37.828;2023-07-16T07:48:19;23.20;77.00
40636;DHT22;26642;55.766;37.828;2023-07-16T07:50:47;23.30;77.10
40636;DHT22;26642;55.766;37.828;2023-07-16T07:53:13;23.30;77.10
40636;DHT22;26642;55.766;37.828;2023-07-16T07:55:41;23.30;77.20
40636;DHT22;26642;55.766;37.828;2023-07-16T07:58:07;23.30;77.50
40636;DHT22;26642;55.766;37.828;2023-07-16T08:00:33;23.30;76.30
40636;DHT22;26642;55.766;37.828;2023-07-16T08:02:59;23.30;76.30
40636;DHT22;26642;55.766;37.828;2023-07-16T08:05:25;23.30;76.60
40636;DHT22;26642;55.766;37.828;2023-07-16T08:07:51;23.30;76.50
40636;DHT22;26642;55.766;37.828;2023-07-16T08:10:18;23.30;76.60
40636;DHT22;26642;55.766;37.828;2023-07-16T08:12:43;23.30;76.60
40636;DHT22;26642;55.766;37.828;2023-07-16T08:15:10;23.30;76.60
40636;DHT22;26642;55.766;37.828;2023-07-16T08:17:44;23.40;76.70
40636;DHT22;26642;55.766;37.828;2023-07-16T08:20:11;23.40;76.60
40636;DHT22;26642;55.766;37.828;2023-07-16T08:22:38;23.40;76.70
40636;DHT22;26642;55.766;37.828;2023-07-16T08:25:04;23.50;76.70
40636;DHT22;26642;55.766;37.828;2023-07-16T08:27:31;23.50;76.60
40636;DHT22;26642;55.766;37.828;2023-07-16T08:29:57;23.50;76.60
40636;DHT22;26642;55.766;37.828;2023-07-16T08:32:23;23.60;76.60
40636;DHT22;26642;55.766;37.828;2023-07-16T08:34:49;23.60;76.40
40636;DHT22;26642;55.766;37.828;2023-07-16T08:37:15;23.60;76.50
40636;DHT22;26642;55.766;37.828;2023-07-16T08:39:41;23.60;76.60
40636;DHT22;26642;55.766;37.828;2023-07-16T08:42:09;23.60;76.30
40636;DHT22;26642;55.766;37.828;2023-07-16T08:44:37;23.60;76.20
40636;DHT22;26642;55.766;37.828;2023-07-16T08:47:05;23.70;76.30
40636;DHT22;26642;55.766;37.828;2023-07-16T08:49:34;23.60;76.30
40636;DHT22;26642;55.766;37.828;2023-07-16T08:52:01;23.60;76.30
40636;DHT22;26642;55.766;37.828;2023-07-16T08:54:28;23.70;76.40
40636;DHT22;26642;55.766;37.828;2023-07-16T08:56:54;23.60;76.40
40636;DHT22;26642;55.766;37.828;2023-07-16T08:59:21;23.60;76.40
40636;DHT22;26642;55.766;37.828;2023-07-16T09:01:48;23.70;76.40
40636;DHT22;26642;55.766;37.828;2023-07-16T09:04:15;23.70;75.80
40636;DHT22;26642;55.766;37.828;2023-07-16T09:06:42;23.70;76.10
40636;DHT22;26642;55.766;37.828;2023-07-16T09:09:10;23.70;76.30
40636;DHT22;26642;55.766;37.828;2023-07-16T09:11:46;23.80;76.20
40636;DHT22;26642;55.766;37.828;2023-07-16T09:14:18;23.80;76.10
40636;DHT22;26642;55.766;37.828;2023-07-16T09:16:51;23.80;76.10
40636;DHT22;26642;55.766;37.828;2023-07-16T09:19:18;23.80;76.00
40636;DHT22;26642;55.766;37.828;2023-07-16T09:21:50;23.80;75.90
40636;DHT22;26642;55.766;37.828;2023-07-16T09:24:18;23.80;75.80
40636;DHT22;26642;55.766;37.828;2023-07-16T09:26:54;23.80;75.50
40636;DHT22;26642;55.766;37.828;2023-07-16T09:29:25;23.90;75.80
40636;DHT22;26642;55.766;37.828;2023-07-16T09:32:00;23.80;75.10
40636;DHT22;26642;55.766;37.828;2023-07-16T09:34:31;23.80;75.30
40636;DHT22;26642;55.766;37.828;2023-07-16T09:36:58;23.80;75.60
40636;DHT22;26642;55.766;37.828;2023-07-16T09:39:26;23.80;75.80
40636;DHT22;26642;55.766;37.828;2023-07-16T09:41:52;23.80;75.80
40636;DHT22;26642;55.766;37.828;2023-07-16T09:44:19;23.90;75.70
40636;DHT22;26642;55.766;37.828;2023-07-16T09:46:46;23.80;75.30
40636;DHT22;26642;55.766;37.828;2023-07-16T09:49:13;23.90;75.40
40636;DHT22;26642;55.766;37.828;2023-07-16T09:51:39;23.80;75.40
40636;DHT22;26642;55.766;37.828;2023-07-16T09:54:06;23.90;75.20
40636;DHT22;26642;55.766;37.828;2023-07-16T09:56:44;23.90;75.00
40636;DHT22;26642;55.766;37.828;2023-07-16T09:59:15;23.90;74.60
40636;DHT22;26642;55.766;37.828;2023-07-16T10:01:42;23.90;74.60
40636;DHT22;26642;55.766;37.828;2023-07-16T10:04:15;23.90;74.80
40636;DHT22;26642;55.766;37.828;2023-07-16T10:07:00;23.90;74.50
40636;DHT22;26642;55.766;37.828;2023-07-16T10:12:16;24.00;74.70
40636;DHT22;26642;55.766;37.828;2023-07-16T10:14:55;24.00;74.90
40636;DHT22;26642;55.766;37.828;2023-07-16T10:17:25;24.00;75.00
40636;DHT22;26642;55.766;37.828;2023-07-16T10:19:58;24.00;74.90
40636;DHT22;26642;55.766;37.828;2023-07-16T10:22:34;24.00;74.80
40636;DHT22;26642;55.766;37.828;2023-07-16T10:25:00;24.00;74.90
40636;DHT22;26642;55.766;37.828;2023-07-16T10:27:28;24.00;74.60
40636;DHT22;26642;55.766;37.828;2023-07-16T10:29:54;24.00;74.30
40636;DHT22;26642;55.766;37.828;2023-07-16T10:32:21;24.00;73.80
40636;DHT22;26642;55.766;37.828;2023-07-16T10:34:47;24.00;72.70
40636;DHT22;26642;55.766;37.828;2023-07-16T10:37:12;24.00;71.40
40636;DHT22;26642;55.766;37.828;2023-07-16T10:39:49;24.00;72.50
40636;DHT22;26642;55.766;37.828;2023-07-16T10:42:16;24.00;73.20
40636;DHT22;26642;55.766;37.828;2023-07-16T10:44:43;24.00;72.90
40636;DHT22;26642;55.766;37.828;2023-07-16T10:47:22;24.00;72.30
40636;DHT22;26642;55.766;37.828;2023-07-16T10:49:48;24.00;72.30
40636;DHT22;26642;55.766;37.828;2023-07-16T10:52:14;24.00;72.20
40636;DHT22;26642;55.766;37.828;2023-07-16T10:54:40;24.00;72.40
40636;DHT22;26642;55.766;37.828;2023-07-16T10:57:06;24.00;71.90
40636;DHT22;26642;55.766;37.828;2023-07-16T10:59:32;23.90;71.10
40636;DHT22;26642;55.766;37.828;2023-07-16T11:01:58;23.90;71.30
40636;DHT22;26642;55.766;37.828;2023-07-16T11:04:24;23.90;71.40
40636;DHT22;26642;55.766;37.828;2023-07-16T11:06:50;23.90;71.70
40636;DHT22;26642;55.766;37.828;2023-07-16T11:09:17;23.90;72.30
40636;DHT22;26642;55.766;37.828;2023-07-16T11:11:43;23.90;72.00
40636;DHT22;26642;55.766;37.828;2023-07-16T11:14:09;24.00;72.50
40636;DHT22;26642;55.766;37.828;2023-07-16T11:16:36;24.00;71.80
40636;DHT22;26642;55.766;37.828;2023-07-16T11:19:05;24.00;70.70
40636;DHT22;26642;55.766;37.828;2023-07-16T11:21:36;23.90;69.70
40636;DHT22;26642;55.766;37.828;2023-07-16T11:24:28;23.90;69.50
40636;DHT22;26642;55.766;37.828;2023-07-16T11:27:01;23.90;69.30
40636;DHT22;26642;55.766;37.828;2023-07-16T11:29:34;23.80;68.90
40636;DHT22;26642;55.766;37.828;2023-07-16T11:32:02;23.90;68.80
40636;DHT22;26642;55.766;37.828;2023-07-16T11:34:28;23.90;70.10
40636;DHT22;26642;55.766;37.828;2023-07-16T11:36:54;23.90;71.30
40636;DHT22;26642;55.766;37.828;2023-07-16T11:39:20;24.00;72.10
40636;DHT22;26642;55.766;37.828;2023-07-16T11:41:58;24.00;72.10
40636;DHT22;26642;55.766;37.828;2023-07-16T11:44:24;24.00;71.90
40636;DHT22;26642;55.766;37.828;2023-07-16T11:46:50;23.90;68.60
40636;DHT22;26642;55.766;37.828;2023-07-16T11:49:16;23.90;70.40
40636;DHT22;26642;55.766;37.828;2023-07-16T11:51:42;24.00;71.60
40636;DHT22;26642;55.766;37.828;2023-07-16T11:54:10;24.00;72.00
40636;DHT22;26642;55.766;37.828;2023-07-16T11:56:36;24.00;72.20
40636;DHT22;26642;55.766;37.828;2023-07-16T11:59:02;24.00;70.00
40636;DHT22;26642;55.766;37.828;2023-07-16T12:01:28;24.00;68.60
40636;DHT22;26642;55.766;37.828;2023-07-16T12:03:53;24.00;69.40
40636;DHT22;26642;55.766;37.828;2023-07-16T12:06:19;24.00;68.50
40636;DHT22;26642;55.766;37.828;2023-07-16T12:08:45;24.00;70.70
40636;DHT22;26642;55.766;37.828;2023-07-16T12:11:11;24.10;71.40
40636;DHT22;26642;55.766;37.828;2023-07-16T12:13:37;24.10;71.50
40636;DHT22;26642;55.766;37.828;2023-07-16T12:16:03;24.10;71.90
40636;DHT22;26642;55.766;37.828;2023-07-16T12:18:29;24.10;71.80
40636;DHT22;26642;55.766;37.828;2023-07-16T12:20:56;24.10;72.10
40636;DHT22;26642;55.766;37.828;2023-07-16T12:23:22;24.00;72.00
40636;DHT22;26642;55.766;37.828;2023-07-16T12:25:49;24.10;71.90
40636;DHT22;26642;55.766;37.828;2023-07-16T12:28:15;24.10;72.20
40636;DHT22;26642;55.766;37.828;2023-07-16T12:30:41;24.00;72.10
40636;DHT22;26642;55.766;37.828;2023-07-16T12:33:07;24.10;72.10
40636;DHT22;26642;55.766;37.828;2023-07-16T12:35:33;24.00;72.10
40636;DHT22;26642;55.766;37.828;2023-07-16T12:37:59;24.00;72.10
40636;DHT22;26642;55.766;37.828;2023-07-16T12:40:28;24.00;72.10
40636;DHT22;26642;55.766;37.828;2023-07-16T12:42:54;24.00;71.90
40636;DHT22;26642;55.766;37.828;2023-07-16T12:45:20;24.00;72.10
40636;DHT22;26642;55.766;37.828;2023-07-16T12:47:46;24.00;72.10
40636;DHT22;26642;55.766;37.828;2023-07-16T12:50:12;24.00;72.20
40636;DHT22;26642;55.766;37.828;2023-07-16T12:52:38;24.00;72.30
40636;DHT22;26642;55.766;37.828;2023-07-16T12:55:04;24.00;71.90
40636;DHT22;26642;55.766;37.828;2023-07-16T12:57:30;24.00;68.00
40636;DHT22;26642;55.766;37.828;2023-07-16T12:59:57;24.00;69.90
40636;DHT22;26642;55.766;37.828;2023-07-16T13:02:23;24.00;71.20
40636;DHT22;26642;55.766;37.828;2023-07-16T13:04:49;24.00;71.30
40636;DHT22;26642;55.766;37.828;2023-07-16T13:07:15;24.00;71.40
40636;DHT22;26642;55.766;37.828;2023-07-16T13:09:41;24.00;68.80
40636;DHT22;26642;55.766;37.828;2023-07-16T13:12:07;24.00;68.20
40636;DHT22;26642;55.766;37.828;2023-07-16T13:14:33;24.00;70.30
40636;DHT22;26642;55.766;37.828;2023-07-16T13:16:59;24.00;70.90
40636;DHT22;26642;55.766;37.828;2023-07-16T13:19:27;24.00;71.10
40636;DHT22;26642;55.766;37.828;2023-07-16T13:21:52;24.00;71.40
40636;DHT22;26642;55.766;37.828;2023-07-16T13:24:18;24.00;71.30
40636;DHT22;26642;55.766;37.828;2023-07-16T13:26:44;24.00;71.40
40636;DHT22;26642;55.766;37.828;2023-07-16T13:29:10;24.00;71.70
40636;DHT22;26642;55.766;37.828;2023-07-16T13:31:36;24.00;71.40
40636;DHT22;26642;55.766;37.828;2023-07-16T13:34:02;24.00;71.70
40636;DHT22;26642;55.766;37.828;2023-07-16T13:36:28;24.00;68.90
40636;DHT22;26642;55.766;37.828;2023-07-16T13:38:54;24.00;71.00
40636;DHT22;26642;55.766;37.828;2023-07-16T13:41:20;24.00;71.30
40636;DHT22;26642;55.766;37.828;2023-07-16T13:43:46;24.10;71.00
40636;DHT22;26642;55.766;37.828;2023-07-16T13:46:12;24.10;71.30
40636;DHT22;26642;55.766;37.828;2023-07-16T13:48:38;24.10;71.60
40636;DHT22;26642;55.766;37.828;2023-07-16T13:51:05;24.10;71.10
40636;DHT22;26642;55.766;37.828;2023-07-16T13:53:31;24.10;69.60
40636;DHT22;26642;55.766;37.828;2023-07-16T13:55:57;24.10;71.10
40636;DHT22;26642;55.766;37.828;2023-07-16T13:58:24;24.10;70.80
40636;DHT22;26642;55.766;37.828;2023-07-16T14:00:49;24.10;71.00
40636;DHT22;26642;55.766;37.828;2023-07-16T14:03:15;24.10;71.20
40636;DHT22;26642;55.766;37.828;2023-07-16T14:05:41;24.10;69.30
40636;DHT22;26642;55.766;37.828;2023-07-16T14:08:07;24.10;70.90
40636;DHT22;26642;55.766;37.828;2023-07-16T14:10:33;24.10;71.00
40636;DHT22;26642;55.766;37.828;2023-07-16T14:12:59;24.10;71.00
40636;DHT22;26642;55.766;37.828;2023-07-16T14:15:25;24.10;70.80
40636;DHT22;26642;55.766;37.828;2023-07-16T14:17:51;24.10;70.40
40636;DHT22;26642;55.766;37.828;2023-07-16T14:20:17;24.10;69.80
40636;DHT22;26642;55.766;37.828;2023-07-16T14:22:43;24.10;70.10
40636;DHT22;26642;55.766;37.828;2023-07-16T14:25:09;24.00;69.70
40636;DHT22;26642;55.766;37.828;2023-07-16T14:27:35;24.00;70.00
40636;DHT22;26642;55.766;37.828;2023-07-16T14:30:01;24.00;70.10
40636;DHT22;26642;55.766;37.828;2023-07-16T14:32:27;24.00;70.60
40636;DHT22;26642;55.766;37.828;2023-07-16T14:34:54;24.00;70.80
40636;DHT22;26642;55.766;37.828;2023-07-16T14:37:20;24.00;70.40
40636;DHT22;26642;55.766;37.828;2023-07-16T14:39:46;24.00;70.20
40636;DHT22;26642;55.766;37.828;2023-07-16T14:42:12;24.00;70.10
40636;DHT22;26642;55.766;37.828;2023-07-16T14:44:38;24.00;70.60
40636;DHT22;26642;55.766;37.828;2023-07-16T14:47:04;24.00;70.60
40636;DHT22;26642;55.766;37.828;2023-07-16T14:49:30;24.00;70.30
40636;DHT22;26642;55.766;37.828;2023-07-16T14:51:56;24.00;70.40
40636;DHT22;26642;55.766;37.828;2023-07-16T14:54:22;24.00;69.60
40636;DHT22;26642;55.766;37.828;2023-07-16T14:56:47;23.90;70.10
40636;DHT22;26642;55.766;37.828;2023-07-16T14:59:13;24.00;69.90
40636;DHT22;26642;55.766;37.828;2023-07-16T15:01:39;23.90;69.80
40636;DHT22;26642;55.766;37.828;2023-07-16T15:04:05;23.90;69.80
40636;DHT22;26642;55.766;37.828;2023-07-16T15:06:31;23.90;70.70
40636;DHT22;26642;55.766;37.828;2023-07-16T15:08:57;23.90;70.00
40636;DHT22;26642;55.766;37.828;2023-07-16T15:11:23;23.90;70.20
40636;DHT22;26642;55.766;37.828;2023-07-16T15:13:49;23.90;70.70
40636;DHT22;26642;55.766;37.828;2023-07-16T15:16:15;23.90;70.70
40636;DHT22;26642;55.766;37.828;2023-07-16T15:18:41;23.90;70.70